Terminal Aerodrome Forecast
Issued by NWS

Home | Current Version | Previous Version | Graphics & Text | Print | Product List | Glossary On
Versions: 1 2 3 4 5 6 7 8 9 10 11 12 13 14 15
000
FTUS43 KMPX 132200 AAB
TAFRWF
TAF AMD
KRWF 132243Z 1323/1418 35018G28KT P6SM BKN035 OVC250
     FM140300 35020G32KT P6SM SCT035 BKN250
     FM141200 33016G22KT P6SM SCT050=

USA.gov is the U.S. government's official web portal to all federal, state and local government web resources and services.